Main page
METAR-TAF:

METAR-TAF

Airports :

Luton Airport

Luton, England

latitude: 51-52N, longitude: 000-22W, elevation: 160 m

Current weather observation

The report was made 17 minutes ago, at 06:50 UTC
Wind 12 kt from the Northwest
Temperature 4°C
Humidity 87%
Pressure 1020 hPa
Visibility 10 km or more
Broken clouds at a height of 2200 ft

METAR: EGGW 170650Z AUTO 31012KT 9999 BKN022 04/02 Q1020

Time: 07:07 (07:07 UTC)

Forecast

The report was made 2 hours and 9 minutes ago, at 04:58 UTC
Forecast valid from 17 at 06 UTC to 18 at 06 UTC
Wind 8 kt from the West/Northwest
Visibility 10 km or more
Few clouds at a height of 3000 ft
Probability 30% :
Temporary
from 17 at 06 UTC to 17 at 07 UTC
Visibility: 8000 m
Broken clouds at a height of 900 ft
light rain showers

TAF: EGGW 170458Z 1706/1806 29008KT 9999 FEW030 PROB30 TEMPO 1706/1707 8000 -SHRA BKN009

Weather observations and forecasts of more than 4000 airports (METAR and TAF reports).

The available stations are represented by yellow and red dots on the map.

Hover mouse over dot to see the name of the station.

Then click to see weather observations and forecasts.

To change the map : click on the green buttons with a black cross to zoom in, on the green button with a dash to zoom out, or on the green arrows for adjacent maps.


METAR-TAF: